This is the latest recevied weather packets stored in our database for station/object KJ7IVE-13. If no packets are shown the sender has not sent any weather packets the latest 1 day(s).
| Time | Temp. | Humidity | Pressure | Rain* | Wind** | Luminosity | Snow |
|---|---|---|---|---|---|---|---|
| 1836274844 | 20.56° C | 10% | 1018.5 hPa | 0 mm | 0.45 m/s, 200° | 0 W/m² | - |
| 1836274542 | 21.11° C | 10% | 1018.4 hPa | 0 mm | 0.89 m/s, 204° | 0 W/m² | - |
| 1836274396 | 20.56° C | 10% | 1018.5 hPa | 0 mm | 0 m/s | 0 W/m² | - |
| 1836274241 | 21.67° C | 10% | 1018.6 hPa | 0 mm | 0 m/s | 0 W/m² | - |
| 1836273940 | 21.67° C | 10% | 1018.4 hPa | 0 mm | 0 m/s | 0 W/m² | - |
| 1778060415 | 8.89° C | 10% | 1016.1 hPa | 0 mm | 2.24 m/s, 80° | 0 W/m² | - |
| 1778060113 | 8.89° C | 10% | 1015.8 hPa | 0 mm | 3.13 m/s, 42° | 0 W/m² | - |
| 1778059810 | 8.89° C | 10% | 1016 hPa | 0 mm | 5.36 m/s, 51° | 0 W/m² | - |
| 1778059508 | 8.89° C | 10% | 1016 hPa | 0 mm | 4.02 m/s, 71° | 0 W/m² | - |
| 1778059204 | 9.44° C | 10% | 1015.7 hPa | 0 mm | 3.13 m/s, 28° | 0 W/m² | - |
| 1778058903 | 8.89° C | 10% | 1016.1 hPa | 0 mm | 3.13 m/s, 45° | 0 W/m² | - |
| 1778058599 | 8.89° C | 10% | 1015.8 hPa | 0 mm | 2.68 m/s, 56° | 0 W/m² | - |
| 1778058297 | 9.44° C | 10% | 1015.8 hPa | 0 mm | 5.36 m/s, 50° | 0 W/m² | - |
| 1778057993 | 9.44° C | 10% | 1015.5 hPa | 0 mm | 6.26 m/s, 56° | 0 W/m² | - |
| 1778057690 | 10° C | 10% | 1015.5 hPa | 0 mm | 4.02 m/s, 44° | 0 W/m² | - |
| 1778057386 | 10° C | 10% | 1015.2 hPa | 0 mm | 2.68 m/s, 32° | 0 W/m² | - |
| 1778057083 | 10° C | 10% | 1014.9 hPa | 0 mm | 4.02 m/s, 27° | 0 W/m² | - |
| 1778056780 | 10° C | 10% | 1015.1 hPa | 0 mm | 4.02 m/s, 86° | 0 W/m² | - |
| 1778056477 | 10° C | 10% | 1015.1 hPa | 0 mm | 1.34 m/s, 65° | 0 W/m² | - |
| 1778056174 | 10° C | 10% | 1014.9 hPa | 0 mm | 3.13 m/s, 33° | 0 W/m² | - |
| 1778055871 | 10° C | 10% | 1014.8 hPa | 0 mm | 4.02 m/s, 50° | 0 W/m² | - |
| 1778055567 | 9.44° C | 10% | 1014.5 hPa | 0 mm | 3.13 m/s, 46° | 0 W/m² | - |
| 1778055266 | 10° C | 10% | 1014.3 hPa | 0 mm | 2.68 m/s, 94° | 0 W/m² | - |
| 1778054962 | 10.56° C | 10% | 1014.2 hPa | 0 mm | 2.24 m/s, 71° | 0 W/m² | - |
| 1778054659 | 10.56° C | 10% | 1014.1 hPa | 0 mm | 3.13 m/s, 79° | 0 W/m² | - |
* Rain latest hour (hover to see other rain measurements)
** Current wind speed in m/s (hover to see current wind gust speed)